Kenai, AK (99611)

12:20 AM AKST on February 06, 2016 (GMT -0900)
coastal | | Change Station
CLOSE
Current Station
Personal Weather Station
Location: Kenai, AK
Elevation: 90 ft
Nearby Weather Stations

Elev 90 ft 60.57 °N, 151.29 °W | Updated 33 minutes ago

Mist
Mist
24.8 °F
Feels Like 25 °F
N
0.0
Wind Variable Wind from NNE

Today
High -- | Low -- °F
--% Chance of Precip.
Yesterday
High -- | Low -- °F
Precip. -- in
Pressure 29.47 in
Visibility 1.0 miles
Clouds
Windchill 25 °F
Dew Point 25 °F
Humidity 99%
Rainfall in
Snow Depth Not available.
9:09 AM 5:29 PM
Waning Crescent, 6% visible
SPECI PAEN 060918Z AUTO 00000KT 1SM BR VV002 M05/M07 A2947 RMK AO2 T10501067 TSNO
Pressure 29.47 in
Visibility 1.0 miles
Clouds
Windchill 25 °F
Dew Point 25 °F
Humidity 99%
Rainfall in
Snow Depth Not available.
9:09 AM 5:29 PM
Waning Crescent, 6% visible
SPECI PAEN 060918Z AUTO 00000KT 1SM BR VV002 M05/M07 A2947 RMK AO2 T10501067 TSNO

10-Day Weather Forecast

Almanac

Astronomy

Feb. 06, 2016 Rise Set
Actual Time
Civil Twilight
Nautical Twilight
Astronomical Twilight
Moon
Length of Visible Light
Length of Day
Tomorrow will be .
, % of the Moon is Illuminated

Today's Extremes

State Highs State Lows

Community

WunderPhotos

Upload Photos

1,890,933 photos uploaded!

WunderBlog® & News

Nearby

Air Quality

  Air Quality AQ Index Pollutant
Not available.

Snow Depth

Station Depth Elevation

Earthquake Activity

City Distance Mag. Time & Date
Minimum magnitude displayed is 2.5.

Coastal Water Temperatures

Place Temperature

Stations

Nearby Weather Stations

Station Location Temp. Windchill Dew Point Humidity Wind Precip. Elev Updated Type
                   

Watches & Warnings

There are currently no watches in effect.